createdAt,value
2019-03-30T00:01:49.370Z,6.90
2019-03-30T00:04:19.598Z,6.90
2019-03-30T00:06:49.918Z,6.90
2019-03-30T00:09:20.147Z,7.00
2019-03-30T00:11:50.362Z,7.10
2019-03-30T00:14:20.595Z,7.30
2019-03-30T00:16:50.838Z,7.50
2019-03-30T00:19:34.144Z,7.60
2019-03-30T00:21:53.027Z,7.80
2019-03-30T00:24:23.276Z,8.00
2019-03-30T00:26:53.542Z,8.10
2019-03-30T00:29:23.830Z,8.20
2019-03-30T00:31:54.086Z,8.40
2019-03-30T00:34:24.313Z,8.60
2019-03-30T00:36:54.573Z,8.70
2019-03-30T00:39:24.828Z,8.80
2019-03-30T00:41:55.089Z,8.90
2019-03-30T00:44:25.294Z,9.00
2019-03-30T00:46:55.520Z,9.10
2019-03-30T00:49:25.740Z,9.10
2019-03-30T00:51:55.987Z,9.20
2019-03-30T00:54:26.262Z,9.30
2019-03-30T00:56:56.509Z,9.30
2019-03-30T00:59:26.696Z,9.30
2019-03-30T01:01:56.955Z,9.30
2019-03-30T01:04:27.217Z,9.30
2019-03-30T01:06:57.539Z,9.40
2019-03-30T01:09:27.725Z,9.40
2019-03-30T01:11:57.984Z,9.40
2019-03-30T01:14:28.230Z,9.40
2019-03-30T01:16:58.476Z,9.40
2019-03-30T01:19:28.676Z,9.40
2019-03-30T01:21:58.936Z,9.40
2019-03-30T01:24:29.214Z,9.40
2019-03-30T01:26:59.476Z,9.40
2019-03-30T01:29:29.674Z,9.40
2019-03-30T01:31:59.972Z,9.40
2019-03-30T01:34:30.161Z,9.40
2019-03-30T01:37:00.456Z,9.40
2019-03-30T01:39:30.717Z,9.40
2019-03-30T01:42:01.099Z,9.40
2019-03-30T01:44:31.382Z,9.40
2019-03-30T01:47:01.583Z,9.40
2019-03-30T01:49:31.884Z,9.40
2019-03-30T01:52:02.155Z,9.40
2019-03-30T01:54:32.432Z,9.40
2019-03-30T01:57:02.729Z,9.40
2019-03-30T01:59:32.947Z,9.40
2019-03-30T02:02:03.290Z,9.40
2019-03-30T02:04:33.497Z,9.40
2019-03-30T02:07:03.759Z,9.40
2019-03-30T02:09:33.988Z,9.40
2019-03-30T02:12:04.346Z,9.40
2019-03-30T02:14:34.546Z,9.40
2019-03-30T02:17:04.884Z,9.40
2019-03-30T02:19:35.217Z,9.40
2019-03-30T02:22:06.457Z,9.40
2019-03-30T02:24:36.705Z,9.40
2019-03-30T02:27:07.131Z,9.40
2019-03-30T02:29:37.286Z,9.40
2019-03-30T02:32:07.633Z,9.40
2019-03-30T02:34:37.883Z,9.40
2019-03-30T02:37:08.134Z,9.40
2019-03-30T02:39:38.357Z,9.30
2019-03-30T02:42:08.563Z,9.30
2019-03-30T02:44:38.841Z,9.20
2019-03-30T02:47:09.068Z,9.10
2019-03-30T02:49:39.291Z,8.90
2019-03-30T02:52:09.576Z,8.70
2019-03-30T02:54:39.777Z,8.50
2019-03-30T02:57:10.036Z,8.50
2019-03-30T02:59:40.342Z,8.50
2019-03-30T03:02:10.557Z,8.60
2019-03-30T03:04:40.847Z,8.60
2019-03-30T03:07:11.060Z,8.60
2019-03-30T03:09:41.274Z,8.70
2019-03-30T03:12:11.661Z,8.80
2019-03-30T03:14:41.847Z,8.80
2019-03-30T03:17:12.057Z,8.80
2019-03-30T03:19:42.282Z,8.90
2019-03-30T03:22:12.494Z,8.90
2019-03-30T03:24:42.752Z,8.90
2019-03-30T03:27:12.990Z,8.90
2019-03-30T03:29:43.973Z,9.00
2019-03-30T03:32:15.045Z,9.00
2019-03-30T03:34:45.326Z,9.00
2019-03-30T03:37:15.525Z,9.00
2019-03-30T03:39:45.744Z,9.00
2019-03-30T03:42:15.997Z,9.00
2019-03-30T03:44:46.244Z,9.00
2019-03-30T03:47:16.514Z,9.00
2019-03-30T03:49:46.719Z,9.00
2019-03-30T03:52:17.114Z,9.00
2019-03-30T03:54:47.538Z,9.00
2019-03-30T03:57:19.319Z,9.10
2019-03-30T03:59:52.081Z,9.10
2019-03-30T04:02:25.537Z,9.10
2019-03-30T04:04:58.136Z,9.10
2019-03-30T04:07:31.547Z,9.10
2019-03-30T04:10:03.829Z,9.10
2019-03-30T04:12:37.043Z,9.10
2019-03-30T04:15:07.735Z,9.10
2019-03-30T04:17:38.018Z,9.10
2019-03-30T04:20:09.017Z,9.20
2019-03-30T04:22:39.217Z,9.20
2019-03-30T04:25:09.563Z,9.20
2019-03-30T04:27:39.836Z,9.20
2019-03-30T04:30:10.157Z,9.20
2019-03-30T04:32:40.379Z,9.20
2019-03-30T04:35:10.662Z,9.30
2019-03-30T04:37:40.866Z,9.30
2019-03-30T04:40:11.089Z,9.30
2019-03-30T04:42:41.343Z,9.30
2019-03-30T04:45:13.055Z,9.40
2019-03-30T04:47:43.266Z,9.40
2019-03-30T04:50:13.506Z,9.40
2019-03-30T04:52:43.700Z,9.40
2019-03-30T04:55:13.940Z,9.50
2019-03-30T04:57:44.168Z,9.50
2019-03-30T05:00:14.590Z,9.50
2019-03-30T05:02:44.839Z,9.50
2019-03-30T05:05:15.135Z,9.60
2019-03-30T05:07:45.361Z,9.70
2019-03-30T05:10:15.581Z,9.70
2019-03-30T05:12:45.868Z,9.70
2019-03-30T05:15:17.664Z,9.70
2019-03-30T05:17:48.289Z,9.70
2019-03-30T05:20:18.928Z,9.70
2019-03-30T05:22:51.351Z,9.80
2019-03-30T05:25:21.046Z,9.80
2019-03-30T05:27:51.271Z,9.90
2019-03-30T05:30:21.548Z,9.90
2019-03-30T05:33:04.990Z,10.00
2019-03-30T05:35:23.655Z,10.00
2019-03-30T05:37:53.891Z,10.00
2019-03-30T05:40:24.195Z,10.10
2019-03-30T05:43:15.115Z,10.10
2019-03-30T05:45:45.343Z,10.20
2019-03-30T05:48:15.579Z,10.30
2019-03-30T05:50:45.773Z,10.30
2019-03-30T05:53:16.019Z,10.30
2019-03-30T05:55:46.245Z,10.30
2019-03-30T05:58:16.471Z,10.40
2019-03-30T06:00:46.724Z,10.40
2019-03-30T06:03:17.004Z,10.50
2019-03-30T06:05:47.202Z,10.50
2019-03-30T06:08:17.960Z,10.60
2019-03-30T06:10:48.168Z,10.70
2019-03-30T06:13:18.397Z,10.80
2019-03-30T06:15:48.655Z,10.80
2019-03-30T06:18:18.900Z,11.00
2019-03-30T06:20:49.116Z,11.10
2019-03-30T06:23:19.371Z,11.10
2019-03-30T06:25:49.623Z,11.20
2019-03-30T06:28:19.864Z,11.30
2019-03-30T06:30:50.110Z,11.40
2019-03-30T06:33:20.328Z,11.50
2019-03-30T06:35:50.566Z,11.60
2019-03-30T06:38:20.832Z,11.70
2019-03-30T06:40:51.312Z,11.70
2019-03-30T06:43:23.512Z,11.70
2019-03-30T06:45:53.751Z,11.70
2019-03-30T06:48:23.972Z,11.90
2019-03-30T06:50:54.229Z,12.00
2019-03-30T06:53:24.452Z,12.00
2019-03-30T06:55:54.672Z,11.90
2019-03-30T06:58:24.902Z,12.00
2019-03-30T07:00:56.324Z,12.10
2019-03-30T07:03:26.590Z,12.20
2019-03-30T07:05:57.063Z,12.30
2019-03-30T07:08:30.039Z,12.40
2019-03-30T07:11:03.223Z,12.50
2019-03-30T07:13:36.666Z,12.50
2019-03-30T07:16:07.767Z,12.50
2019-03-30T07:18:40.429Z,12.60
2019-03-30T07:21:10.699Z,12.70
2019-03-30T07:23:40.971Z,12.80
2019-03-30T07:26:11.634Z,12.90
2019-03-30T07:28:41.973Z,12.90
2019-03-30T07:31:12.188Z,13.00
2019-03-30T07:33:42.403Z,13.00
2019-03-30T07:36:12.635Z,13.00
2019-03-30T07:38:42.861Z,13.10
2019-03-30T07:41:13.128Z,13.30
2019-03-30T07:43:44.501Z,13.30
2019-03-30T07:46:14.799Z,13.20
2019-03-30T07:48:45.855Z,13.20
2019-03-30T07:51:16.074Z,13.30
2019-03-30T07:53:46.960Z,13.40
2019-03-30T07:56:17.231Z,13.50
2019-03-30T07:58:47.479Z,13.50
2019-03-30T08:01:17.727Z,13.60
2019-03-30T08:03:47.976Z,13.70
2019-03-30T08:06:18.237Z,13.80
2019-03-30T08:08:48.438Z,13.90
2019-03-30T08:11:18.692Z,13.90
2019-03-30T08:13:48.874Z,13.90
2019-03-30T08:16:19.100Z,13.90
2019-03-30T08:18:49.321Z,13.90
2019-03-30T08:21:19.556Z,13.90
2019-03-30T08:23:49.788Z,13.90
2019-03-30T08:26:19.999Z,14.00
2019-03-30T08:28:50.298Z,14.20
2019-03-30T08:31:20.507Z,14.40
2019-03-30T08:33:50.764Z,14.60
2019-03-30T08:36:21.004Z,14.80
2019-03-30T08:38:51.225Z,14.90
2019-03-30T08:41:21.491Z,15.00
2019-03-30T08:43:52.024Z,15.00
2019-03-30T08:46:22.397Z,14.70
2019-03-30T08:48:52.643Z,14.70
2019-03-30T08:51:22.874Z,14.90
2019-03-30T08:53:54.917Z,14.90
2019-03-30T08:56:27.893Z,15.10
2019-03-30T08:58:56.960Z,15.20
2019-03-30T09:01:27.240Z,15.30
2019-03-30T09:03:58.351Z,15.40
2019-03-30T09:06:28.603Z,15.50
2019-03-30T09:08:58.828Z,15.60
2019-03-30T09:11:29.084Z,15.70
2019-03-30T09:13:59.299Z,15.80
2019-03-30T09:16:29.530Z,15.90
2019-03-30T09:18:59.734Z,15.90
2019-03-30T09:21:29.992Z,15.90
2019-03-30T09:24:09.546Z,16.00
2019-03-30T09:26:33.533Z,16.20
2019-03-30T09:29:03.827Z,16.50
2019-03-30T09:31:34.059Z,16.50
2019-03-30T09:34:04.493Z,16.20
2019-03-30T09:36:34.846Z,15.90
2019-03-30T09:39:07.167Z,15.80
2019-03-30T09:41:37.365Z,15.80
2019-03-30T09:44:07.619Z,15.80
2019-03-30T09:46:37.853Z,16.00
2019-03-30T09:49:08.085Z,16.10
2019-03-30T09:51:38.325Z,16.30
2019-03-30T09:54:22.834Z,16.40
2019-03-30T09:56:40.637Z,16.40
2019-03-30T09:59:10.953Z,16.40
2019-03-30T10:01:43.691Z,16.40
2019-03-30T10:04:14.034Z,16.50
2019-03-30T10:06:47.330Z,16.70
2019-03-30T10:09:17.538Z,16.90
2019-03-30T10:11:47.737Z,17.00
2019-03-30T10:14:18.693Z,17.30
2019-03-30T10:16:48.925Z,17.40
2019-03-30T10:19:19.134Z,17.50
2019-03-30T10:21:49.357Z,17.50
2019-03-30T10:24:19.630Z,17.40
2019-03-30T10:26:49.836Z,17.40
2019-03-30T10:29:20.063Z,17.20
2019-03-30T10:31:50.322Z,17.40
2019-03-30T10:34:20.515Z,17.50
2019-03-30T10:36:50.792Z,17.40
2019-03-30T10:39:21.018Z,17.20
2019-03-30T10:41:51.289Z,17.00
2019-03-30T10:44:21.507Z,17.10
2019-03-30T10:46:51.732Z,17.30
2019-03-30T10:49:22.031Z,17.50
2019-03-30T10:51:54.365Z,17.40
2019-03-30T10:54:24.239Z,17.30
2019-03-30T10:56:54.477Z,17.20
2019-03-30T10:59:24.748Z,17.10
2019-03-30T11:01:55.007Z,16.80
2019-03-30T11:04:25.587Z,16.40
2019-03-30T11:06:56.246Z,16.30
2019-03-30T11:09:26.711Z,16.20
2019-03-30T11:11:56.999Z,16.30
2019-03-30T11:14:27.310Z,16.20
2019-03-30T11:16:59.469Z,15.90
2019-03-30T11:19:29.662Z,15.70
2019-03-30T11:22:03.317Z,15.60
2019-03-30T11:24:34.137Z,15.60
2019-03-30T11:27:04.393Z,15.60
2019-03-30T11:29:34.668Z,15.40
2019-03-30T11:32:04.923Z,15.20
2019-03-30T11:34:35.219Z,15.00
2019-03-30T11:37:05.590Z,14.90
2019-03-30T11:39:35.838Z,14.90
2019-03-30T11:42:06.118Z,15.00
2019-03-30T11:44:36.394Z,15.00
2019-03-30T11:47:07.673Z,14.80
2019-03-30T11:49:37.893Z,14.70
2019-03-30T11:52:08.152Z,14.60
2019-03-30T11:54:38.393Z,14.40
2019-03-30T11:57:10.032Z,14.40
2019-03-30T11:59:40.367Z,14.30
2019-03-30T12:02:10.639Z,14.40
2019-03-30T12:04:40.908Z,14.40
2019-03-30T12:07:11.219Z,14.50
2019-03-30T12:09:41.450Z,14.50
2019-03-30T12:12:11.667Z,14.50
2019-03-30T12:14:43.549Z,14.50
2019-03-30T12:17:13.817Z,14.50
2019-03-30T12:19:44.017Z,14.50
2019-03-30T12:22:14.235Z,14.50
2019-03-30T12:24:44.555Z,14.50
2019-03-30T12:27:14.847Z,14.50
2019-03-30T12:29:46.221Z,14.50
2019-03-30T12:32:16.527Z,14.50
2019-03-30T12:34:46.950Z,14.40
2019-03-30T12:37:17.195Z,14.40
2019-03-30T12:39:47.477Z,14.40
2019-03-30T12:42:17.682Z,14.50
2019-03-30T12:44:50.724Z,14.50
2019-03-30T12:47:20.984Z,14.40
2019-03-30T12:49:51.412Z,14.50
2019-03-30T12:52:21.687Z,14.60
2019-03-30T12:54:51.903Z,14.70
2019-03-30T12:57:22.139Z,14.70
2019-03-30T12:59:52.566Z,14.80
2019-03-30T13:02:25.551Z,14.80
2019-03-30T13:04:55.842Z,14.80
2019-03-30T13:07:26.140Z,14.90
2019-03-30T13:09:57.419Z,14.90
2019-03-30T13:12:27.649Z,15.00
2019-03-30T13:14:58.043Z,14.90
2019-03-30T13:17:30.711Z,15.00
2019-03-30T13:20:00.960Z,14.90
2019-03-30T13:22:31.223Z,15.00
2019-03-30T13:25:01.487Z,15.00
2019-03-30T13:27:32.076Z,15.10
2019-03-30T13:30:05.342Z,15.00
2019-03-30T13:32:36.708Z,15.10
2019-03-30T13:35:07.047Z,15.10
2019-03-30T13:37:37.775Z,15.20
2019-03-30T13:40:09.219Z,15.20
2019-03-30T13:42:39.429Z,15.30
2019-03-30T13:45:09.807Z,15.40
2019-03-30T13:47:40.047Z,15.40
2019-03-30T13:50:11.196Z,15.40
2019-03-30T13:52:42.687Z,15.40
2019-03-30T13:55:13.005Z,15.50
2019-03-30T13:57:43.290Z,15.50
2019-03-30T14:00:16.519Z,15.60
2019-03-30T14:02:47.358Z,15.60
2019-03-30T14:05:17.624Z,15.60
2019-03-30T14:07:47.844Z,15.60
2019-03-30T14:10:18.413Z,15.50
2019-03-30T14:12:48.672Z,15.50
2019-03-30T14:15:18.900Z,15.50
2019-03-30T14:17:49.196Z,15.50
2019-03-30T14:20:19.371Z,15.50
2019-03-30T14:22:49.670Z,15.60
2019-03-30T14:25:20.018Z,15.60
2019-03-30T14:27:51.250Z,15.60
2019-03-30T14:30:21.579Z,15.50
2019-03-30T14:32:51.888Z,15.50
2019-03-30T14:35:22.200Z,15.40
2019-03-30T14:37:53.097Z,15.50
2019-03-30T14:40:24.509Z,15.50
2019-03-30T14:42:54.766Z,15.50
2019-03-30T14:45:25.150Z,15.50
2019-03-30T14:47:57.869Z,15.50
2019-03-30T14:50:27.337Z,15.50
2019-03-30T14:52:57.912Z,15.40
2019-03-30T14:55:28.803Z,15.40
2019-03-30T14:57:59.073Z,15.40
2019-03-30T15:00:29.498Z,15.30
2019-03-30T15:03:00.202Z,15.30
2019-03-30T15:05:30.526Z,15.30
2019-03-30T15:08:00.819Z,15.30
2019-03-30T15:10:31.072Z,15.30
2019-03-30T15:13:01.326Z,15.20
2019-03-30T15:15:31.683Z,15.20
2019-03-30T15:18:01.980Z,15.10
2019-03-30T15:20:32.193Z,15.20
2019-03-30T15:23:02.491Z,15.10
2019-03-30T15:25:32.735Z,15.10
2019-03-30T15:28:02.978Z,15.00
2019-03-30T15:30:33.264Z,15.00
2019-03-30T15:33:03.688Z,14.90
2019-03-30T15:35:34.466Z,14.90
2019-03-30T15:38:04.757Z,14.90
2019-03-30T15:40:35.100Z,14.90
2019-03-30T15:43:05.443Z,14.90
2019-03-30T15:45:35.692Z,14.90
2019-03-30T15:48:06.269Z,14.90
2019-03-30T15:50:36.536Z,14.90
2019-03-30T15:53:06.824Z,14.80
2019-03-30T15:55:37.245Z,14.70
2019-03-30T15:58:07.701Z,14.70
2019-03-30T16:00:37.977Z,14.60
2019-03-30T16:03:08.383Z,14.60
2019-03-30T16:05:38.665Z,14.50
2019-03-30T16:08:08.939Z,14.40
2019-03-30T16:10:39.260Z,14.20
2019-03-30T16:13:09.870Z,14.10
2019-03-30T16:15:40.191Z,14.00
2019-03-30T16:18:10.504Z,13.80
2019-03-30T16:20:40.769Z,13.70
2019-03-30T16:23:11.027Z,13.60
2019-03-30T16:25:41.359Z,13.50
2019-03-30T16:28:11.628Z,13.30
2019-03-30T16:30:41.928Z,13.20
2019-03-30T16:33:12.227Z,13.00
2019-03-30T16:35:42.503Z,12.80
2019-03-30T16:38:12.740Z,12.70
2019-03-30T16:40:43.116Z,12.60
2019-03-30T16:43:13.386Z,12.40
2019-03-30T16:45:43.595Z,12.30
2019-03-30T16:48:14.828Z,12.20
2019-03-30T16:50:45.248Z,12.10
2019-03-30T16:53:15.499Z,12.00
2019-03-30T16:55:45.776Z,11.80
2019-03-30T16:58:15.991Z,11.70
2019-03-30T17:00:56.312Z,11.60
2019-03-30T17:03:18.207Z,11.50
2019-03-30T17:05:48.457Z,11.40
2019-03-30T17:08:18.690Z,11.30
2019-03-30T17:10:49.129Z,11.20
2019-03-30T17:13:19.717Z,11.10
2019-03-30T17:15:50.495Z,11.00
2019-03-30T17:18:20.863Z,10.90
2019-03-30T17:20:51.125Z,10.80
2019-03-30T17:23:21.552Z,10.70
2019-03-30T17:25:51.852Z,10.70
2019-03-30T17:28:22.301Z,10.50
2019-03-30T17:30:53.850Z,10.40
2019-03-30T17:33:24.700Z,10.30
2019-03-30T17:35:54.945Z,10.20
2019-03-30T17:38:26.326Z,10.10
2019-03-30T17:40:56.580Z,10.10
2019-03-30T17:43:27.364Z,10.00
2019-03-30T17:45:57.885Z,10.00
2019-03-30T17:48:30.646Z,9.80
2019-03-30T17:51:01.051Z,9.80
2019-03-30T17:53:31.563Z,9.70
2019-03-30T17:56:02.182Z,9.60
2019-03-30T17:58:32.981Z,9.50
2019-03-30T18:01:03.702Z,9.40
2019-03-30T18:03:33.983Z,9.30
2019-03-30T18:06:04.389Z,9.20
2019-03-30T18:08:34.615Z,9.10
2019-03-30T18:11:05.639Z,9.00
2019-03-30T18:13:37.264Z,8.90
2019-03-30T18:16:10.310Z,8.90
2019-03-30T18:18:40.608Z,8.80
2019-03-30T18:21:10.969Z,8.70
2019-03-30T18:23:42.015Z,8.60
2019-03-30T18:26:12.336Z,8.60
2019-03-30T18:28:42.752Z,8.50
2019-03-30T18:31:13.118Z,8.40
2019-03-30T18:33:44.879Z,8.30
2019-03-30T18:36:17.950Z,8.20
2019-03-30T18:38:50.375Z,8.10
2019-03-30T18:41:21.142Z,8.10
2019-03-30T18:43:51.733Z,8.00
2019-03-30T18:46:22.031Z,8.00
2019-03-30T18:48:52.387Z,7.90
2019-03-30T18:51:24.085Z,7.90
2019-03-30T18:53:56.630Z,7.80
2019-03-30T18:56:28.005Z,7.80
2019-03-30T18:58:58.435Z,7.70
2019-03-30T19:01:30.074Z,7.60
2019-03-30T19:04:00.543Z,7.60
2019-03-30T19:06:31.232Z,7.50
2019-03-30T19:09:04.129Z,7.50
2019-03-30T19:11:34.363Z,7.50
2019-03-30T19:14:04.993Z,7.40
2019-03-30T19:16:35.501Z,7.40
2019-03-30T19:19:05.801Z,7.30
2019-03-30T19:21:36.690Z,7.20
2019-03-30T19:24:06.956Z,7.20
2019-03-30T19:26:37.427Z,7.10
2019-03-30T19:29:07.897Z,7.10
2019-03-30T19:31:38.205Z,7.00
2019-03-30T19:34:08.541Z,7.00
2019-03-30T19:36:39.199Z,6.90
2019-03-30T19:39:10.927Z,6.90
2019-03-30T19:41:41.485Z,6.80
2019-03-30T19:44:13.138Z,6.80
2019-03-30T19:46:43.710Z,6.70
2019-03-30T19:49:14.073Z,6.70
2019-03-30T19:51:44.323Z,6.60
2019-03-30T19:54:14.871Z,6.50
2019-03-30T19:56:45.361Z,6.50
2019-03-30T19:59:15.752Z,6.40
2019-03-30T20:01:47.711Z,6.40
2019-03-30T20:04:17.943Z,6.40
2019-03-30T20:06:48.463Z,6.40
2019-03-30T20:09:20.791Z,6.30
2019-03-30T20:11:51.115Z,6.40
2019-03-30T20:14:21.508Z,6.30
2019-03-30T20:16:52.524Z,6.30
2019-03-30T20:19:22.807Z,6.30
2019-03-30T20:21:53.136Z,6.30
2019-03-30T20:24:23.625Z,6.20
2019-03-30T20:26:53.915Z,6.20
2019-03-30T20:29:25.516Z,6.20
2019-03-30T20:31:56.107Z,6.10
2019-03-30T20:34:27.502Z,6.00
2019-03-30T20:36:57.981Z,6.00
2019-03-30T20:39:28.196Z,6.00
2019-03-30T20:41:58.502Z,6.00
2019-03-30T20:44:28.781Z,6.00
2019-03-30T20:46:59.089Z,5.90
2019-03-30T20:49:29.369Z,5.90
2019-03-30T20:52:01.844Z,5.90
2019-03-30T20:54:31.660Z,5.80
2019-03-30T20:57:01.928Z,5.80
2019-03-30T20:59:39.994Z,5.70
2019-03-30T21:02:09.352Z,5.70
2019-03-30T21:04:40.297Z,5.70
2019-03-30T21:07:10.543Z,5.60
2019-03-30T21:09:40.947Z,5.60
2019-03-30T21:12:11.222Z,5.50
2019-03-30T21:14:41.478Z,5.50
2019-03-30T21:17:11.734Z,5.40
2019-03-30T21:19:42.131Z,5.40
2019-03-30T21:22:19.776Z,5.40
2019-03-30T21:24:50.137Z,5.30
2019-03-30T21:27:22.220Z,5.30
2019-03-30T21:29:54.829Z,5.20
2019-03-30T21:32:27.867Z,5.20
2019-03-30T21:34:58.487Z,5.20
2019-03-30T21:37:28.722Z,5.10
2019-03-30T21:39:59.630Z,5.10
2019-03-30T21:42:29.873Z,5.10
2019-03-30T21:45:00.497Z,5.10
2019-03-30T21:47:30.950Z,5.10
2019-03-30T21:50:02.060Z,5.10
2019-03-30T21:52:32.272Z,5.10
2019-03-30T21:55:03.053Z,5.10
2019-03-30T21:57:33.292Z,5.10
2019-03-30T22:00:10.417Z,5.00
2019-03-30T22:02:35.465Z,5.00
2019-03-30T22:05:06.267Z,5.00
2019-03-30T22:07:37.756Z,5.00
2019-03-30T22:10:10.001Z,5.00
2019-03-30T22:12:42.606Z,5.00
2019-03-30T22:15:14.424Z,5.00
2019-03-30T22:17:44.659Z,5.00
2019-03-30T22:20:14.891Z,5.00
2019-03-30T22:22:46.160Z,4.90
2019-03-30T22:25:16.375Z,4.90
2019-03-30T22:27:46.613Z,4.90
2019-03-30T22:30:24.668Z,4.90
2019-03-30T22:32:48.957Z,4.90
2019-03-30T22:35:19.230Z,4.90
2019-03-30T22:37:49.501Z,4.90
2019-03-30T22:40:19.765Z,4.90
2019-03-30T22:42:49.979Z,4.90
2019-03-30T22:45:20.247Z,4.90
2019-03-30T22:47:50.510Z,4.90
2019-03-30T22:50:20.792Z,5.00
2019-03-30T22:52:51.043Z,4.90
2019-03-30T22:55:21.333Z,4.90
2019-03-30T22:57:51.663Z,4.80
2019-03-30T23:00:39.635Z,4.80
2019-03-30T23:03:10.028Z,4.80
2019-03-30T23:05:40.239Z,4.90
2019-03-30T23:08:10.583Z,4.80
2019-03-30T23:10:40.797Z,4.90
2019-03-30T23:13:11.019Z,4.80
2019-03-30T23:15:41.287Z,4.80
2019-03-30T23:18:11.503Z,4.80
2019-03-30T23:20:41.764Z,4.80
2019-03-30T23:23:12.003Z,4.80
2019-03-30T23:25:42.233Z,4.80
2019-03-30T23:28:12.479Z,4.70
2019-03-30T23:30:53.431Z,4.70
2019-03-30T23:33:14.589Z,4.70
2019-03-30T23:35:44.823Z,4.70
2019-03-30T23:38:15.091Z,4.70
2019-03-30T23:40:45.311Z,4.70
2019-03-30T23:43:15.584Z,4.70
2019-03-30T23:45:45.792Z,4.70
2019-03-30T23:48:16.031Z,4.70
2019-03-30T23:50:46.288Z,4.70
2019-03-30T23:53:16.525Z,4.80
2019-03-30T23:55:46.739Z,4.80
2019-03-30T23:58:16.987Z,4.80
